createdAt,value
2022-10-13T00:00:52.016Z,15.30
2022-10-13T00:03:54.878Z,15.23
2022-10-13T00:06:58.444Z,15.27
2022-10-13T00:10:02.519Z,14.50
2022-10-13T00:13:06.476Z,14.77
2022-10-13T00:16:10.794Z,14.18
2022-10-13T00:19:15.174Z,13.95
2022-10-13T00:22:18.281Z,13.57
2022-10-13T00:25:21.715Z,14.15
2022-10-13T00:28:25.305Z,13.57
2022-10-13T00:31:30.799Z,14.02
2022-10-13T00:34:33.602Z,14.38
2022-10-13T00:37:36.503Z,14.10
2022-10-13T00:40:52.095Z,13.95
2022-10-13T00:43:57.375Z,13.90
2022-10-13T00:47:00.324Z,13.75
2022-10-13T00:50:04.900Z,14.05
2022-10-13T00:53:10.776Z,14.17
2022-10-13T00:56:16.457Z,13.25
2022-10-13T00:59:27.142Z,14.00
2022-10-13T01:02:35.103Z,13.45
2022-10-13T01:05:39.701Z,13.90
2022-10-13T01:08:42.618Z,13.67
2022-10-13T01:12:24.376Z,13.63
2022-10-13T01:16:01.726Z,13.70
2022-10-13T01:19:26.104Z,14.40
2022-10-13T01:22:28.729Z,14.68
2022-10-13T01:25:42.989Z,14.17
2022-10-13T01:28:45.748Z,14.85
2022-10-13T01:32:06.635Z,13.68
2022-10-13T01:35:30.816Z,13.93
2022-10-13T01:38:45.377Z,14.48
2022-10-13T01:41:52.840Z,15.33
2022-10-13T01:45:01.801Z,14.63
2022-10-13T01:48:07.542Z,15.15
2022-10-13T01:51:20.326Z,14.95
2022-10-13T01:54:23.057Z,16.15
2022-10-13T01:57:37.734Z,14.93
2022-10-13T02:00:48.254Z,14.57
2022-10-13T02:04:06.547Z,14.32
2022-10-13T02:07:42.063Z,15.07
2022-10-13T02:10:54.393Z,13.55
2022-10-13T02:14:08.212Z,13.90
2022-10-13T02:17:11.750Z,14.63
2022-10-13T02:20:18.379Z,14.20
2022-10-13T02:23:21.848Z,14.80
2022-10-13T02:26:25.881Z,14.63
2022-10-13T02:29:52.880Z,14.77
2022-10-13T02:32:56.840Z,14.23
2022-10-13T02:36:00.310Z,14.10
2022-10-13T02:39:03.102Z,14.85
2022-10-13T02:42:06.340Z,14.43
2022-10-13T02:45:10.158Z,15.37
2022-10-13T02:48:12.848Z,15.55
2022-10-13T02:51:15.604Z,14.40
2022-10-13T02:54:18.438Z,13.98
2022-10-13T02:57:21.230Z,14.73
2022-10-13T03:00:28.380Z,14.77
2022-10-13T03:03:31.080Z,14.32
2022-10-13T03:06:34.113Z,13.30
2022-10-13T03:09:37.070Z,13.73
2022-10-13T03:12:39.925Z,13.57
2022-10-13T03:15:42.664Z,13.90
2022-10-13T03:18:45.686Z,14.35
2022-10-13T03:21:48.541Z,15.02
2022-10-13T03:24:51.246Z,14.77
2022-10-13T03:27:56.163Z,14.32
2022-10-13T03:31:08.351Z,13.73
2022-10-13T03:34:12.862Z,13.23
2022-10-13T03:37:15.726Z,14.45
2022-10-13T03:40:19.330Z,13.95
2022-10-13T03:43:23.031Z,13.65
2022-10-13T03:46:28.876Z,14.63
2022-10-13T03:49:33.661Z,13.30
2022-10-13T03:52:36.536Z,13.70
2022-10-13T03:55:39.233Z,13.57
2022-10-13T03:58:43.014Z,14.60
2022-10-13T04:01:45.882Z,15.53
2022-10-13T04:04:48.697Z,15.93
2022-10-13T04:07:51.385Z,15.30
2022-10-13T04:11:06.409Z,15.05
2022-10-13T04:14:09.274Z,14.88
2022-10-13T04:17:12.349Z,14.77
2022-10-13T04:20:15.505Z,15.27
2022-10-13T04:23:18.883Z,14.82
2022-10-13T04:26:25.977Z,14.95
2022-10-13T04:29:29.154Z,14.45
2022-10-13T04:32:32.654Z,15.30
2022-10-13T04:35:42.415Z,14.80
2022-10-13T04:38:45.492Z,14.77
2022-10-13T04:41:48.216Z,16.00
2022-10-13T04:44:51.026Z,14.77
2022-10-13T04:47:57.222Z,15.33
2022-10-13T04:51:09.511Z,14.80
2022-10-13T04:54:12.367Z,14.27
2022-10-13T04:57:15.054Z,14.45
2022-10-13T05:00:18.134Z,14.23
2022-10-13T05:03:20.917Z,14.03
2022-10-13T05:06:26.144Z,14.35
2022-10-13T05:09:31.333Z,14.27
2022-10-13T05:12:34.356Z,13.88
2022-10-13T05:15:39.360Z,13.10
2022-10-13T05:18:42.964Z,13.83
2022-10-13T05:21:47.630Z,13.65
2022-10-13T05:24:50.454Z,13.98
2022-10-13T05:27:53.447Z,14.43
2022-10-13T05:30:56.489Z,14.82
2022-10-13T05:34:00.379Z,14.30
2022-10-13T05:37:13.843Z,14.07
2022-10-13T05:40:23.870Z,14.15
2022-10-13T05:43:36.899Z,14.25
2022-10-13T05:46:43.730Z,13.93
2022-10-13T05:49:54.089Z,14.07
2022-10-13T05:52:57.527Z,14.35
2022-10-13T05:56:06.525Z,22.50
2022-10-13T05:59:13.570Z,14.30
2022-10-13T06:02:25.092Z,14.13
2022-10-13T06:05:32.495Z,13.13
2022-10-13T06:08:40.300Z,13.18
2022-10-13T06:11:45.194Z,13.60
2022-10-13T06:14:49.005Z,12.80
2022-10-13T06:17:51.910Z,13.80
2022-10-13T06:20:54.903Z,13.10
2022-10-13T06:23:57.972Z,13.02
2022-10-13T06:27:03.041Z,13.85
2022-10-13T06:30:08.311Z,13.32
2022-10-13T06:33:13.021Z,12.73
2022-10-13T06:36:19.021Z,13.53
2022-10-13T06:39:21.835Z,13.43
2022-10-13T06:42:25.008Z,12.52
2022-10-13T06:45:44.199Z,12.63
2022-10-13T06:48:58.425Z,13.32
2022-10-13T06:52:02.969Z,12.90
2022-10-13T06:55:09.180Z,12.15
2022-10-13T06:58:12.845Z,13.02
2022-10-13T07:01:16.049Z,12.40
2022-10-13T07:04:18.724Z,12.20
2022-10-13T07:07:24.278Z,11.67
2022-10-13T07:10:30.360Z,11.90
2022-10-13T07:13:36.361Z,12.20
2022-10-13T07:16:40.761Z,12.02
2022-10-13T07:19:43.554Z,13.43
2022-10-13T07:22:55.417Z,11.60
2022-10-13T07:26:02.057Z,12.35
2022-10-13T07:29:05.166Z,11.45
2022-10-13T07:32:08.039Z,11.57
2022-10-13T07:38:31.671Z,11.63
2022-10-13T07:41:34.889Z,12.00
2022-10-13T07:44:44.040Z,11.15
2022-10-13T07:47:47.728Z,10.60
2022-10-13T07:50:50.968Z,10.75
2022-10-13T07:53:54.489Z,10.33
2022-10-13T07:57:00.607Z,10.23
2022-10-13T08:00:06.169Z,10.23
2022-10-13T08:03:17.523Z,10.13
2022-10-13T08:06:21.935Z,10.80
2022-10-13T08:09:27.626Z,10.40
2022-10-13T08:12:31.313Z,10.35
2022-10-13T08:15:35.176Z,10.40
2022-10-13T08:18:38.014Z,10.32
2022-10-13T08:22:01.787Z,10.75
2022-10-13T08:25:07.355Z,10.70
2022-10-13T08:28:23.964Z,10.55
2022-10-13T08:31:28.988Z,10.98
2022-10-13T08:34:39.955Z,11.20
2022-10-13T08:37:46.120Z,11.48
2022-10-13T08:40:58.306Z,10.37
2022-10-13T08:48:20.373Z,10.77
2022-10-13T08:51:23.295Z,10.57
2022-10-13T08:54:26.663Z,11.18
2022-10-13T08:57:29.451Z,10.33
2022-10-13T09:00:32.279Z,10.75
2022-10-13T09:03:56.325Z,10.55
2022-10-13T09:07:10.428Z,11.10
2022-10-13T09:10:15.574Z,11.23
2022-10-13T09:13:21.430Z,10.10
2022-10-13T09:16:39.375Z,10.32
2022-10-13T09:19:57.207Z,10.88
2022-10-13T09:23:28.498Z,11.02
2022-10-13T09:26:36.643Z,10.57
2022-10-13T09:29:40.132Z,10.77
2022-10-13T09:32:44.734Z,11.23
2022-10-13T09:36:11.564Z,11.45
2022-10-13T09:39:16.525Z,11.30
2022-10-13T09:42:27.726Z,10.35
2022-10-13T09:45:33.329Z,10.20
2022-10-13T09:48:38.226Z,9.88
2022-10-13T09:51:45.131Z,10.05
2022-10-13T09:55:00.850Z,9.68
2022-10-13T09:58:15.316Z,10.70
2022-10-13T10:01:28.869Z,10.67
2022-10-13T10:04:38.731Z,9.98
2022-10-13T10:07:41.728Z,10.20
2022-10-13T10:10:45.016Z,10.20
2022-10-13T10:13:47.721Z,9.35
2022-10-13T10:17:14.315Z,9.87
2022-10-13T10:20:49.489Z,9.60
2022-10-13T10:24:07.740Z,9.35
2022-10-13T10:30:23.511Z,8.88
2022-10-13T10:33:45.054Z,9.17
2022-10-13T10:36:55.625Z,9.05
2022-10-13T10:40:17.110Z,8.48
2022-10-13T10:43:42.372Z,8.98
2022-10-13T10:46:49.946Z,8.52
2022-10-13T10:50:02.310Z,8.03
2022-10-13T10:53:27.166Z,8.55
2022-10-13T10:56:37.428Z,9.23
2022-10-13T11:04:50.395Z,9.02
2022-10-13T11:07:53.183Z,8.57
2022-10-13T11:11:32.295Z,8.30
2022-10-13T11:14:40.535Z,8.70
2022-10-13T11:17:43.420Z,8.40
2022-10-13T11:20:58.327Z,8.57
2022-10-13T11:24:02.190Z,8.30
2022-10-13T11:27:08.333Z,8.40
2022-10-13T11:30:47.551Z,8.32
2022-10-13T11:33:56.316Z,8.88
2022-10-13T11:37:01.985Z,8.20
2022-10-13T11:40:25.455Z,8.43
2022-10-13T11:43:53.201Z,8.25
2022-10-13T11:47:17.677Z,8.88
2022-10-13T11:50:33.439Z,8.48
2022-10-13T11:53:48.682Z,9.32
2022-10-13T11:56:54.293Z,9.10
2022-10-13T11:59:57.163Z,9.00
2022-10-13T12:03:05.376Z,8.60
2022-10-13T12:06:22.794Z,8.88
2022-10-13T12:09:26.874Z,8.80
2022-10-13T12:12:29.702Z,8.60
2022-10-13T12:15:36.428Z,8.45
2022-10-13T12:18:41.137Z,8.45
2022-10-13T12:21:55.850Z,9.10
2022-10-13T12:25:01.510Z,8.80
2022-10-13T12:28:04.513Z,8.50
2022-10-13T12:31:19.664Z,9.73
2022-10-13T12:34:27.682Z,8.95
2022-10-13T12:37:36.833Z,8.60
2022-10-13T12:40:40.037Z,8.48
2022-10-13T12:43:43.506Z,9.13
2022-10-13T12:46:55.575Z,9.13
2022-10-13T12:50:44.898Z,8.82
2022-10-13T12:53:48.685Z,8.93
2022-10-13T12:57:01.575Z,8.68
2022-10-13T13:00:28.736Z,9.37
2022-10-13T13:03:31.657Z,9.30
2022-10-13T13:06:37.235Z,9.07
2022-10-13T13:09:42.891Z,9.65
2022-10-13T13:12:48.283Z,9.13
2022-10-13T13:15:51.178Z,8.93
2022-10-13T13:18:54.042Z,9.55
2022-10-13T13:21:56.778Z,9.57
2022-10-13T13:24:59.507Z,10.02
2022-10-13T13:28:06.921Z,9.57
2022-10-13T13:31:12.289Z,9.80
2022-10-13T13:34:15.168Z,9.98
2022-10-13T13:37:27.757Z,9.35
2022-10-13T13:40:31.918Z,10.98
2022-10-13T13:43:37.867Z,10.40
2022-10-13T13:46:42.105Z,9.77
2022-10-13T13:49:45.133Z,10.00
2022-10-13T13:52:48.404Z,9.50
2022-10-13T13:55:52.266Z,8.98
2022-10-13T13:58:55.124Z,9.63
2022-10-13T14:01:57.894Z,9.30
2022-10-13T14:05:02.305Z,9.73
2022-10-13T14:08:05.702Z,9.88
2022-10-13T14:11:08.769Z,10.25
2022-10-13T14:14:11.510Z,9.50
2022-10-13T14:17:14.300Z,9.70
2022-10-13T14:20:17.123Z,10.13
2022-10-13T14:23:20.470Z,10.38
2022-10-13T14:26:24.064Z,10.20
2022-10-13T14:29:26.861Z,10.23
2022-10-13T14:32:29.631Z,10.83
2022-10-13T14:35:32.463Z,11.02
2022-10-13T14:38:35.315Z,11.07
2022-10-13T14:41:39.131Z,11.20
2022-10-13T14:44:41.913Z,11.52
2022-10-13T14:47:44.790Z,11.70
2022-10-13T14:50:47.817Z,10.82
2022-10-13T14:53:51.024Z,14.18
2022-10-13T14:56:53.818Z,11.38
2022-10-13T15:00:01.643Z,11.48
2022-10-13T15:03:05.554Z,10.77
2022-10-13T15:06:16.277Z,11.27
2022-10-13T15:09:18.995Z,12.38
2022-10-13T15:12:22.123Z,12.55
2022-10-13T15:15:25.442Z,12.65
2022-10-13T15:18:30.931Z,12.33
2022-10-13T15:21:34.034Z,13.80
2022-10-13T15:24:37.119Z,13.13
2022-10-13T15:27:42.021Z,13.60
2022-10-13T15:30:45.962Z,15.20
2022-10-13T15:33:52.827Z,15.17
2022-10-13T15:36:56.484Z,17.70
2022-10-13T15:39:59.345Z,20.50
2022-10-13T15:43:02.377Z,22.92
2022-10-13T15:46:12.427Z,19.85
2022-10-13T15:49:15.164Z,20.33
2022-10-13T15:52:18.555Z,19.27
2022-10-13T15:55:21.573Z,21.83
2022-10-13T15:58:24.467Z,20.98
2022-10-13T16:01:28.705Z,18.48
2022-10-13T16:04:37.169Z,16.77
2022-10-13T16:07:41.623Z,16.73
2022-10-13T16:10:44.571Z,16.10
2022-10-13T16:13:52.612Z,15.02
2022-10-13T16:20:47.135Z,15.53
2022-10-13T16:23:49.934Z,28.48
2022-10-13T16:26:52.693Z,24.08
2022-10-13T16:29:55.458Z,24.98
2022-10-13T16:32:58.401Z,26.70
2022-10-13T16:36:13.559Z,26.30
2022-10-13T16:39:16.953Z,26.60
2022-10-13T16:42:20.020Z,27.00
2022-10-13T16:45:41.334Z,25.83
2022-10-13T16:48:46.698Z,22.88
2022-10-13T16:51:49.735Z,18.13
2022-10-13T16:54:52.671Z,18.48
2022-10-13T16:57:55.490Z,19.42
2022-10-13T17:01:08.907Z,19.27
2022-10-13T17:04:11.783Z,18.45
2022-10-13T17:07:14.694Z,18.33
2022-10-13T17:10:17.699Z,22.25
2022-10-13T17:13:20.492Z,22.65
2022-10-13T17:16:23.657Z,21.85
2022-10-13T17:19:26.632Z,23.23
2022-10-13T17:22:29.622Z,25.93
2022-10-13T17:25:34.720Z,23.95
2022-10-13T17:28:39.253Z,25.10
2022-10-13T17:31:42.948Z,25.45
2022-10-13T17:34:45.941Z,25.92
2022-10-13T17:37:50.241Z,25.60
2022-10-13T17:40:58.886Z,25.58
2022-10-13T17:44:02.529Z,27.00
2022-10-13T17:47:05.348Z,26.27
2022-10-13T17:50:08.572Z,23.00
2022-10-13T17:53:11.759Z,20.63
2022-10-13T17:56:18.512Z,19.95
2022-10-13T17:59:21.442Z,18.92
2022-10-13T18:02:24.362Z,19.95
2022-10-13T18:05:27.322Z,21.65
2022-10-13T18:08:32.957Z,21.07
2022-10-13T18:11:36.372Z,21.17
2022-10-13T18:14:39.151Z,20.27
2022-10-13T18:17:41.974Z,18.70
2022-10-13T18:20:44.694Z,16.38
2022-10-13T18:23:47.804Z,16.03
2022-10-13T18:26:50.782Z,16.02
2022-10-13T18:29:53.527Z,15.77
2022-10-13T18:32:57.589Z,15.43
2022-10-13T18:36:00.882Z,16.02
2022-10-13T18:39:07.479Z,15.83
2022-10-13T18:42:10.237Z,15.93
2022-10-13T18:45:13.015Z,16.63
2022-10-13T18:48:15.799Z,16.35
2022-10-13T18:51:20.267Z,15.95
2022-10-13T18:54:23.123Z,15.97
2022-10-13T18:57:25.787Z,16.15
2022-10-13T19:00:28.732Z,17.38
2022-10-13T19:03:33.798Z,16.75
2022-10-13T19:06:37.824Z,17.38
2022-10-13T19:09:40.596Z,17.50
2022-10-13T19:12:43.413Z,15.90
2022-10-13T19:15:46.583Z,16.17
2022-10-13T19:18:50.683Z,15.55
2022-10-13T19:21:53.589Z,15.75
2022-10-13T19:24:56.397Z,15.47
2022-10-13T19:28:00.992Z,15.10
2022-10-13T19:31:30.968Z,15.30
2022-10-13T19:34:34.931Z,15.88
2022-10-13T19:37:39.002Z,14.80
2022-10-13T19:40:49.644Z,15.23
2022-10-13T19:43:52.587Z,15.63
2022-10-13T19:46:57.865Z,14.80
2022-10-13T19:50:01.766Z,15.07
2022-10-13T19:53:04.880Z,15.68
2022-10-13T19:56:08.931Z,16.90
2022-10-13T19:59:11.909Z,14.65
2022-10-13T20:02:14.930Z,15.75
2022-10-13T20:05:20.871Z,15.88
2022-10-13T20:08:26.172Z,15.30
2022-10-13T20:11:28.894Z,15.20
2022-10-13T20:14:31.788Z,14.35
2022-10-13T20:17:34.497Z,14.43
2022-10-13T20:20:37.281Z,14.98
2022-10-13T20:23:41.035Z,14.90
2022-10-13T20:26:43.735Z,15.03
2022-10-13T20:29:46.771Z,14.30
2022-10-13T20:32:49.518Z,14.05
2022-10-13T20:35:52.503Z,13.68
2022-10-13T20:38:55.624Z,14.63
2022-10-13T20:41:58.333Z,14.30
2022-10-13T20:45:01.104Z,13.95
2022-10-13T20:48:03.916Z,14.50
2022-10-13T20:51:10.663Z,13.82
2022-10-13T20:54:14.979Z,13.88
2022-10-13T20:57:17.697Z,13.63
2022-10-13T21:00:22.706Z,15.05
2022-10-13T21:03:25.908Z,14.23
2022-10-13T21:06:29.843Z,14.68
2022-10-13T21:09:36.594Z,14.52
2022-10-13T21:12:39.327Z,15.07
2022-10-13T21:15:44.226Z,15.25
2022-10-13T21:18:49.185Z,15.35
2022-10-13T21:21:52.111Z,17.10
2022-10-13T21:24:54.974Z,17.65
2022-10-13T21:27:58.903Z,17.20
2022-10-13T21:31:03.240Z,14.30
2022-10-13T21:34:06.182Z,13.80
2022-10-13T21:37:09.107Z,14.50
2022-10-13T21:40:11.937Z,14.50
2022-10-13T21:43:14.757Z,14.67
2022-10-13T21:46:32.103Z,14.68
2022-10-13T21:49:34.874Z,13.98
2022-10-13T21:52:38.317Z,13.50
2022-10-13T21:55:41.179Z,13.48
2022-10-13T21:58:44.264Z,14.03
2022-10-13T22:01:47.064Z,14.15
2022-10-13T22:04:49.781Z,13.88
2022-10-13T22:07:53.223Z,13.30
2022-10-13T22:10:59.037Z,12.95
2022-10-13T22:14:02.004Z,14.10
2022-10-13T22:17:06.859Z,13.18
2022-10-13T22:20:09.687Z,12.57
2022-10-13T22:23:12.405Z,13.23
2022-10-13T22:26:18.799Z,12.52
2022-10-13T22:29:23.707Z,12.57
2022-10-13T22:32:26.380Z,13.23
2022-10-13T22:35:29.130Z,12.02
2022-10-13T22:38:31.938Z,12.75
2022-10-13T22:41:37.794Z,12.95
2022-10-13T22:44:40.673Z,12.80
2022-10-13T22:47:43.409Z,13.23
2022-10-13T22:50:46.696Z,11.95
2022-10-13T22:53:49.993Z,12.50
2022-10-13T22:56:53.063Z,13.27
2022-10-13T22:59:55.741Z,13.30
2022-10-13T23:02:58.400Z,13.43
2022-10-13T23:06:01.109Z,13.55
2022-10-13T23:09:06.536Z,13.02
2022-10-13T23:12:09.310Z,13.32
2022-10-13T23:15:12.187Z,13.17
2022-10-13T23:18:15.221Z,13.77
2022-10-13T23:21:20.431Z,13.52
2022-10-13T23:24:23.119Z,13.60
2022-10-13T23:27:25.983Z,13.88
2022-10-13T23:30:28.825Z,12.87
2022-10-13T23:33:31.721Z,13.95
2022-10-13T23:36:34.586Z,12.98
2022-10-13T23:39:37.499Z,12.75
2022-10-13T23:42:40.234Z,12.93
2022-10-13T23:45:42.989Z,12.77
2022-10-13T23:48:46.182Z,13.43
2022-10-13T23:51:52.224Z,12.90
2022-10-13T23:54:55.001Z,13.60
2022-10-13T23:57:58.890Z,13.10
